Time;durP1;ratioP1;P1;durP2;ratioP2;P2;SDS_P1;SDS_P2;PMS_P1;PMS_P2;Temp;Humidity;BMP_temperature;BMP_pressure;BME280_temperature;BME280_humidity;BME280_pressure;Samples;Min_cycle;Max_cycle;Signal;HPM_P1;HPM_P2
2023/06/03 00:01:18;;;;;;;7.30;3.40;;;18.30;99.90;;;;;;5059425;28;20674;-75
2023/06/03 00:03:46;;;;;;;4.88;2.75;;;18.40;99.90;;;;;;5052997;28;20072;-74
2023/06/03 00:06:12;;;;;;;7.28;3.30;;;18.60;99.90;;;;;;5053687;28;20494;-75
2023/06/03 00:08:39;;;;;;;4.80;2.75;;;18.40;99.90;;;;;;5060286;28;20409;-75
2023/06/03 00:11:04;;;;;;;6.78;2.83;;;18.40;99.90;;;;;;5055332;28;20032;-75
2023/06/03 00:13:30;;;;;;;6.15;2.90;;;18.40;99.90;;;;;;5056094;28;20081;-75
2023/06/03 00:15:56;;;;;;;8.23;3.33;;;18.30;99.90;;;;;;5058522;28;20485;-76
2023/06/03 00:18:23;;;;;;;6.13;2.75;;;18.30;99.90;;;;;;5052499;28;20540;-75
2023/06/03 00:20:49;;;;;;;7.68;3.03;;;18.40;99.90;;;;;;5054553;28;20056;-76
2023/06/03 00:23:15;;;;;;;6.43;3.03;;;18.50;99.90;;;;;;5058778;28;20455;-75
2023/06/03 00:25:41;;;;;;;5.60;2.63;;;18.60;99.90;;;;;;5053882;28;20386;-75
2023/06/03 00:28:07;;;;;;;5.97;2.50;;;18.70;99.90;;;;;;5055468;28;20033;-75
2023/06/03 00:30:33;;;;;;;4.75;2.85;;;18.70;99.90;;;;;;5055563;28;20033;-75
2023/06/03 00:32:59;;;;;;;5.78;2.78;;;18.80;99.90;;;;;;5054247;28;20036;-75
2023/06/03 00:35:25;;;;;;;6.95;2.80;;;18.80;99.90;;;;;;5051967;28;20027;-75
2023/06/03 00:37:51;;;;;;;5.57;2.55;;;18.70;99.90;;;;;;5062747;28;20037;-75
2023/06/03 00:40:17;;;;;;;6.50;3.10;;;18.70;99.90;;;;;;5052929;28;20025;-75
2023/06/03 00:42:43;;;;;;;3.90;2.40;;;18.80;99.90;;;;;;5056700;28;20131;-75
2023/06/03 00:45:09;;;;;;;6.32;2.80;;;18.70;99.90;;;;;;5055061;28;20040;-75
2023/06/03 00:47:34;;;;;;;4.25;2.20;;;18.80;99.90;;;;;;5052222;28;20079;-75
2023/06/03 00:50:01;;;;;;;5.47;2.97;;;18.90;99.90;;;;;;5053815;28;20471;-75
2023/06/03 00:52:27;;;;;;;5.03;2.60;;;18.90;99.90;;;;;;5057077;28;20020;-75
2023/06/03 00:54:53;;;;;;;5.53;2.90;;;18.80;99.90;;;;;;5052234;28;20029;-75
2023/06/03 00:57:24;;;;;;;5.05;2.22;;;18.70;99.90;;;;;;5054904;28;20051;-75
2023/06/03 00:59:50;;;;;;;4.65;2.92;;;18.80;99.90;;;;;;5061441;28;20039;-75
2023/06/03 01:02:19;;;;;;;4.95;2.33;;;18.90;99.90;;;;;;5053004;28;20450;-75
2023/06/03 01:04:47;;;;;;;4.13;2.30;;;18.70;99.90;;;;;;5052492;28;20035;-75
2023/06/03 01:07:32;;;;;;;4.43;2.28;;;18.80;99.90;;;;;;5049798;28;20025;-75
2023/06/03 01:10:06;;;;;;;4.03;2.20;;;18.90;99.90;;;;;;5050956;28;20040;-75
2023/06/03 01:12:53;;;;;;;5.90;2.33;;;18.90;99.90;;;;;;5054322;28;20036;-75
2023/06/03 01:15:23;;;;;;;5.70;2.35;;;18.80;99.90;;;;;;5052942;28;20021;-75
2023/06/03 01:17:52;;;;;;;5.75;2.60;;;18.70;99.90;;;;;;5056828;28;20044;-75
2023/06/03 01:20:19;;;;;;;7.80;2.47;;;18.70;99.90;;;;;;5054887;28;20029;-75
2023/06/03 01:22:49;;;;;;;4.38;2.28;;;18.50;99.90;;;;;;5052057;28;20360;-75
2023/06/03 01:25:16;;;;;;;5.13;2.38;;;18.50;99.90;;;;;;5054338;28;20108;-75
2023/06/03 01:27:45;;;;;;;6.32;2.60;;;18.20;99.90;;;;;;5055592;28;20112;-75
2023/06/03 01:30:14;;;;;;;4.38;2.72;;;18.10;99.90;;;;;;5054861;28;20097;-75
2023/06/03 01:32:42;;;;;;;5.03;2.50;;;18.20;99.90;;;;;;5063959;28;20035;-75
2023/06/03 01:35:10;;;;;;;4.35;2.70;;;18.00;99.90;;;;;;5051580;28;20418;-75
2023/06/03 01:37:36;;;;;;;4.47;2.53;;;18.10;99.90;;;;;;5053606;28;20063;-75
2023/06/03 01:40:04;;;;;;;5.05;3.05;;;18.20;99.90;;;;;;5053333;28;20395;-75
2023/06/03 01:42:30;;;;;;;4.60;2.50;;;18.10;99.90;;;;;;5054320;28;20123;-75
2023/06/03 01:45:01;;;;;;;5.03;2.63;;;18.10;99.90;;;;;;5057191;28;20072;-75
2023/06/03 01:47:26;;;;;;;4.65;2.55;;;18.10;99.90;;;;;;5052012;28;20494;-75
2023/06/03 01:49:53;;;;;;;5.80;2.33;;;18.20;99.90;;;;;;5051231;28;20123;-75
2023/06/03 01:52:19;;;;;;;4.60;2.85;;;18.10;99.90;;;;;;5052595;28;20033;-75
2023/06/03 01:54:45;;;;;;;6.63;2.72;;;18.10;99.90;;;;;;5054220;28;20032;-76
2023/06/03 01:57:11;;;;;;;4.90;2.42;;;18.00;99.90;;;;;;5052892;28;20045;-74
2023/06/03 01:59:37;;;;;;;4.45;2.40;;;18.20;99.90;;;;;;5059744;28;20028;-74
2023/06/03 02:02:03;;;;;;;4.30;2.33;;;18.00;99.90;;;;;;5057107;28;20058;-74
2023/06/03 02:04:28;;;;;;;4.55;2.63;;;18.10;99.90;;;;;;5053702;28;20024;-74
2023/06/03 02:07:01;;;;;;;5.50;2.30;;;18.10;99.90;;;;;;5056690;28;20025;-74
2023/06/03 02:09:28;;;;;;;7.10;2.72;;;18.20;99.90;;;;;;5052559;28;20043;-74
2023/06/03 02:11:58;;;;;;;7.03;2.70;;;18.30;99.90;;;;;;5057756;28;20028;-74
2023/06/03 02:14:26;;;;;;;4.57;2.20;;;18.20;99.90;;;;;;5051851;28;20037;-74
2023/06/03 02:16:53;;;;;;;5.80;2.70;;;18.30;99.90;;;;;;5052895;28;20442;-74
2023/06/03 02:19:20;;;;;;;5.07;2.20;;;18.10;99.90;;;;;;5052042;28;20380;-74
2023/06/03 02:21:47;;;;;;;4.20;2.40;;;18.10;99.90;;;;;;5050727;28;20155;-74
2023/06/03 02:24:17;;;;;;;4.75;2.47;;;18.10;99.90;;;;;;5048998;28;20063;-73
2023/06/03 02:26:50;;;;;;;5.22;2.90;;;18.10;99.90;;;;;;5055172;28;20029;-74
2023/06/03 02:29:23;;;;;;;4.87;2.63;;;18.10;99.90;;;;;;5051387;28;20040;-74
2023/06/03 02:31:50;;;;;;;6.40;2.57;;;18.10;99.90;;;;;;5052207;28;20279;-74
2023/06/03 02:34:15;;;;;;;5.22;2.55;;;18.10;99.90;;;;;;5053518;28;20056;-74
2023/06/03 02:36:43;;;;;;;4.63;2.50;;;18.00;99.90;;;;;;5055516;28;20122;-74
2023/06/03 02:39:09;;;;;;;4.35;2.58;;;18.10;99.90;;;;;;5051782;28;20041;-73
2023/06/03 02:41:40;;;;;;;4.78;2.13;;;18.00;99.90;;;;;;5054510;28;20028;-74
2023/06/03 02:44:05;;;;;;;5.18;2.60;;;18.00;99.90;;;;;;5053986;28;20029;-74
2023/06/03 02:46:31;;;;;;;5.45;2.60;;;17.90;99.90;;;;;;5051094;28;20479;-73
2023/06/03 02:48:58;;;;;;;5.40;2.47;;;17.80;99.90;;;;;;5052075;28;20025;-73
2023/06/03 02:51:24;;;;;;;5.78;2.72;;;17.80;99.90;;;;;;5051264;28;20024;-73
2023/06/03 02:53:50;;;;;;;5.13;3.00;;;17.70;99.90;;;;;;5054899;28;20033;-74
2023/06/03 02:56:16;;;;;;;5.05;2.20;;;17.70;99.90;;;;;;5050645;28;20043;-74
2023/06/03 02:58:42;;;;;;;5.05;3.03;;;17.90;99.90;;;;;;5049404;28;20032;-73
2023/06/03 03:01:07;;;;;;;4.90;2.35;;;17.80;99.90;;;;;;5053794;28;20128;-75
2023/06/03 03:03:36;;;;;;;6.10;2.60;;;17.80;99.90;;;;;;5047412;28;20025;-75
2023/06/03 03:06:06;;;;;;;4.60;2.78;;;17.60;99.90;;;;;;5043513;28;20048;-75
2023/06/03 03:08:33;;;;;;;5.88;3.08;;;17.40;99.90;;;;;;5048540;28;20418;-75
2023/06/03 03:10:58;;;;;;;4.70;2.53;;;17.50;99.90;;;;;;5046490;28;20415;-75
2023/06/03 03:13:24;;;;;;;5.47;2.78;;;17.30;99.90;;;;;;5044283;28;20032;-75
2023/06/03 03:15:50;;;;;;;4.78;2.42;;;17.30;99.90;;;;;;5043864;28;20025;-75
2023/06/03 03:18:16;;;;;;;4.43;2.70;;;17.50;99.90;;;;;;5051052;28;20384;-75
2023/06/03 03:20:42;;;;;;;4.57;2.13;;;17.60;99.90;;;;;;5044962;28;20036;-75
2023/06/03 03:23:07;;;;;;;4.03;2.40;;;17.50;99.90;;;;;;5047297;28;20456;-75
2023/06/03 03:25:34;;;;;;;4.03;2.20;;;17.60;99.90;;;;;;5052837;28;20032;-75
2023/06/03 03:28:00;;;;;;;6.82;2.65;;;17.40;99.90;;;;;;5049647;28;20039;-75
2023/06/03 03:30:26;;;;;;;5.05;2.42;;;17.40;99.90;;;;;;5048499;28;20082;-75
2023/06/03 03:32:51;;;;;;;5.55;2.78;;;17.30;99.90;;;;;;5050305;28;20051;-75
2023/06/03 03:35:20;;;;;;;7.45;2.83;;;17.20;99.90;;;;;;5047647;28;20028;-75
2023/06/03 03:37:46;;;;;;;4.68;2.78;;;17.20;99.90;;;;;;5046177;28;20102;-75
2023/06/03 03:40:22;;;;;;;4.70;2.55;;;17.20;99.90;;;;;;5047434;28;20056;-75
2023/06/03 03:42:49;;;;;;;4.75;2.70;;;17.20;99.90;;;;;;5048247;28;20039;-75
2023/06/03 03:45:21;;;;;;;5.80;3.15;;;17.20;99.90;;;;;;5046406;28;20360;-75
2023/06/03 03:47:50;;;;;;;4.05;2.40;;;17.20;99.90;;;;;;5046248;28;20473;-75
2023/06/03 03:50:39;;;;;;;4.57;2.33;;;16.90;99.90;;;;;;5050018;28;20040;-75
2023/06/03 03:53:11;;;;;;;5.03;2.60;;;16.50;99.90;;;;;;5045500;28;20487;-74
2023/06/03 03:55:45;;;;;;;5.63;2.47;;;16.40;99.90;;;;;;5052991;28;20162;-74
2023/06/03 03:58:29;;;;;;;;;;;16.40;99.90;;;;;;5046841;28;20025;-74
2023/06/03 04:01:00;;;;;;;4.28;2.42;;;16.50;99.90;;;;;;5047359;28;19916;-75
2023/06/03 04:03:27;;;;;;;4.55;2.60;;;16.50;99.90;;;;;;5046994;28;20075;-74
2023/06/03 04:05:53;;;;;;;4.97;2.60;;;16.60;99.90;;;;;;5052311;28;20021;-74
2023/06/03 04:08:40;;;;;;;4.50;2.60;;;16.80;99.90;;;;;;5049656;28;20028;-74
2023/06/03 04:11:18;;;;;;;5.65;2.80;;;16.80;99.90;;;;;;5043857;28;20072;-74
2023/06/03 04:13:44;;;;;;;5.25;2.63;;;16.70;99.90;;;;;;5045853;28;20029;-74
2023/06/03 04:16:11;;;;;;;3.60;2.40;;;16.70;99.90;;;;;;5050158;28;20031;-74
2023/06/03 04:18:41;;;;;;;5.35;2.78;;;16.60;99.90;;;;;;5046847;28;20036;-74
2023/06/03 04:21:14;;;;;;;5.80;3.10;;;16.60;99.90;;;;;;5049771;28;20021;-75
2023/06/03 04:23:40;;;;;;;5.53;2.60;;;16.60;99.90;;;;;;5044031;28;20017;-74
2023/06/03 04:26:07;;;;;;;4.75;2.60;;;16.60;99.90;;;;;;5052054;28;20052;-74
2023/06/03 04:28:32;;;;;;;5.10;3.03;;;16.40;99.90;;;;;;5052544;28;20075;-74
2023/06/03 04:30:58;;;;;;;6.30;3.22;;;16.40;99.90;;;;;;5051722;28;20123;-74
2023/06/03 04:33:23;;;;;;;4.70;2.70;;;16.40;99.90;;;;;;5049094;28;20785;-74
2023/06/03 04:35:49;;;;;;;4.50;2.30;;;16.30;99.90;;;;;;5054482;28;20035;-75
2023/06/03 04:38:15;;;;;;;4.53;2.58;;;16.30;99.90;;;;;;5052477;28;20105;-74
2023/06/03 04:40:40;;;;;;;4.43;2.60;;;16.30;99.90;;;;;;5050620;28;20028;-74
2023/06/03 04:43:07;;;;;;;4.00;2.45;;;16.30;99.90;;;;;;5051223;28;20021;-75
2023/06/03 04:45:34;;;;;;;4.82;2.53;;;16.40;99.90;;;;;;5052552;28;20079;-74
2023/06/03 04:48:01;;;;;;;4.60;2.60;;;16.40;99.90;;;;;;5048655;28;20048;-74
2023/06/03 04:50:28;;;;;;;5.55;2.63;;;16.30;99.90;;;;;;5049253;28;20036;-74
2023/06/03 04:52:56;;;;;;;6.35;3.15;;;16.20;99.90;;;;;;5053896;28;20025;-75
2023/06/03 04:55:22;;;;;;;4.47;2.75;;;16.20;99.90;;;;;;5056510;28;20024;-76
2023/06/03 04:57:50;;;;;;;5.05;2.83;;;16.30;99.90;;;;;;5052754;28;20593;-75
2023/06/03 05:00:19;;;;;;;4.85;2.80;;;16.30;99.90;;;;;;5050073;28;20029;-75
2023/06/03 05:02:54;;;;;;;6.32;2.70;;;16.30;99.90;;;;;;5048290;28;20677;-75
2023/06/03 05:05:29;;;;;;;4.47;2.55;;;16.50;99.90;;;;;;5046454;28;20087;-75
2023/06/03 05:07:55;;;;;;;8.15;3.85;;;16.60;99.90;;;;;;5051190;28;20056;-75
2023/06/03 05:10:21;;;;;;;6.63;2.53;;;16.70;99.90;;;;;;5055379;28;20141;-75
2023/06/03 05:12:47;;;;;;;9.52;3.05;;;16.80;99.90;;;;;;5051900;28;20036;-75
2023/06/03 05:15:13;;;;;;;5.38;3.10;;;16.80;99.90;;;;;;5054687;28;20033;-75
2023/06/03 05:17:38;;;;;;;6.05;3.13;;;16.60;99.90;;;;;;5049442;28;20040;-75
2023/06/03 05:20:07;;;;;;;5.13;2.83;;;16.70;99.90;;;;;;5049278;28;20028;-75
2023/06/03 05:22:32;;;;;;;5.72;2.72;;;16.60;99.90;;;;;;5048327;28;20075;-75
2023/06/03 05:24:58;;;;;;;4.45;2.60;;;16.90;99.90;;;;;;5048409;28;20126;-75
2023/06/03 05:27:24;;;;;;;8.35;2.92;;;17.00;99.90;;;;;;5052649;28;20036;-75
2023/06/03 05:29:49;;;;;;;7.30;2.63;;;17.10;99.90;;;;;;5046575;28;20608;-75
2023/06/03 05:32:15;;;;;;;4.82;2.38;;;17.30;99.90;;;;;;5051716;28;20033;-75
2023/06/03 05:34:41;;;;;;;5.97;2.80;;;17.50;99.90;;;;;;5046964;28;20021;-75
2023/06/03 05:37:06;;;;;;;4.90;2.70;;;17.60;99.90;;;;;;5047893;28;20056;-75
2023/06/03 05:39:32;;;;;;;4.72;2.35;;;17.60;99.90;;;;;;5049621;28;20025;-75
2023/06/03 05:41:58;;;;;;;6.57;3.50;;;17.80;99.90;;;;;;5045322;28;20564;-75
2023/06/03 05:44:23;;;;;;;6.40;2.97;;;17.90;99.90;;;;;;5046560;28;20035;-76
2023/06/03 05:46:49;;;;;;;8.30;2.97;;;17.90;99.90;;;;;;5051539;28;20055;-75
2023/06/03 05:49:14;;;;;;;10.75;3.67;;;17.90;99.90;;;;;;5049228;28;20025;-75
2023/06/03 05:51:40;;;;;;;5.10;3.10;;;18.10;99.90;;;;;;5051127;28;20021;-75
2023/06/03 05:54:06;;;;;;;4.88;2.90;;;18.10;99.90;;;;;;5056784;28;20035;-76
2023/06/03 05:56:31;;;;;;;4.30;2.40;;;18.20;99.90;;;;;;5046485;28;20052;-76
2023/06/03 05:58:58;;;;;;;6.60;3.03;;;18.20;99.90;;;;;;5052919;28;20455;-75
2023/06/03 06:01:24;;;;;;;6.60;3.03;;;18.20;99.90;;;;;;5054456;28;20021;-74
2023/06/03 06:03:50;;;;;;;7.43;3.00;;;18.20;99.90;;;;;;5049622;28;20024;-75
2023/06/03 06:06:15;;;;;;;7.60;2.60;;;18.40;99.90;;;;;;5052409;28;20499;-75
2023/06/03 06:08:42;;;;;;;7.35;3.47;;;18.40;99.90;;;;;;5046173;28;20037;-75
2023/06/03 06:11:10;;;;;;;6.43;3.30;;;18.50;99.90;;;;;;5052493;28;20036;-74
2023/06/03 06:13:35;;;;;;;6.70;3.17;;;18.60;99.90;;;;;;5046491;28;20040;-75
2023/06/03 06:16:03;;;;;;;7.05;3.13;;;18.60;99.90;;;;;;5045677;28;20029;-75
2023/06/03 06:18:31;;;;;;;5.57;2.88;;;18.60;99.90;;;;;;5049448;28;20032;-75
2023/06/03 06:20:58;;;;;;;9.02;3.00;;;18.80;99.90;;;;;;5053219;28;20036;-75
2023/06/03 06:23:24;;;;;;;5.95;3.40;;;19.10;99.90;;;;;;5048925;28;20056;-75
2023/06/03 06:25:51;;;;;;;6.75;2.72;;;18.90;99.90;;;;;;5043417;28;20657;-75
2023/06/03 06:28:35;;;;;;;4.65;2.80;;;18.90;99.90;;;;;;5044626;28;20032;-75
2023/06/03 06:31:04;;;;;;;3.83;2.28;;;18.90;99.90;;;;;;5041530;28;20055;-76
2023/06/03 06:33:34;;;;;;;6.78;3.42;;;19.10;99.90;;;;;;5047792;28;20113;-75
2023/06/03 06:36:16;;;;;;;6.78;2.72;;;19.10;99.90;;;;;;5046809;28;20033;-75
2023/06/03 06:38:42;;;;;;;7.28;3.03;;;19.30;99.90;;;;;;5047413;28;20028;-75
2023/06/03 06:41:11;;;;;;;14.93;3.92;;;19.60;99.90;;;;;;5043411;28;20199;-75
2023/06/03 06:43:39;;;;;;;4.13;2.63;;;19.80;99.90;;;;;;5047506;28;20029;-75
2023/06/03 06:46:13;;;;;;;7.50;2.80;;;19.90;99.90;;;;;;5050147;28;20387;-76
2023/06/03 06:48:39;;;;;;;5.63;2.90;;;19.80;99.90;;;;;;5057260;28;20471;-77
2023/06/03 06:51:06;;;;;;;4.95;3.15;;;19.90;99.90;;;;;;5045570;28;20059;-77
2023/06/03 06:53:34;;;;;;;9.60;2.50;;;20.10;99.90;;;;;;5044849;28;20028;-77
2023/06/03 06:56:05;;;;;;;4.60;3.03;;;20.30;99.90;;;;;;5045292;28;20115;-77
2023/06/03 06:58:36;;;;;;;4.53;2.70;;;20.40;99.90;;;;;;5046242;28;20025;-75
2023/06/03 07:01:05;;;;;;;4.50;2.35;;;20.40;99.90;;;;;;5046738;28;20040;-75
2023/06/03 07:03:31;;;;;;;5.75;3.05;;;20.30;99.90;;;;;;5046371;28;20556;-75
2023/06/03 07:05:57;;;;;;;15.85;4.15;;;20.30;99.90;;;;;;5047556;28;20814;-75
2023/06/03 07:08:24;;;;;;;5.13;3.00;;;20.40;99.90;;;;;;5042966;28;20036;-75
2023/06/03 07:10:50;;;;;;;5.88;3.13;;;20.40;99.90;;;;;;5046282;28;20052;-75
2023/06/03 07:13:16;;;;;;;6.38;3.00;;;20.40;99.90;;;;;;5048095;28;20025;-75
2023/06/03 07:15:43;;;;;;;5.78;2.70;;;20.40;99.90;;;;;;5048582;28;20356;-75
2023/06/03 07:18:10;;;;;;;6.30;2.85;;;20.40;99.90;;;;;;5044186;28;20036;-75
2023/06/03 07:20:40;;;;;;;4.70;2.60;;;20.50;99.90;;;;;;5049996;28;20041;-75
2023/06/03 07:23:16;;;;;;;4.97;2.80;;;20.60;99.90;;;;;;5046894;28;20036;-75
2023/06/03 07:25:43;;;;;;;6.30;2.72;;;20.70;99.90;;;;;;5045977;28;20029;-75
2023/06/03 07:28:16;;;;;;;6.38;2.90;;;20.70;99.90;;;;;;5043885;28;20102;-75
2023/06/03 07:30:43;;;;;;;5.85;3.00;;;20.90;99.90;;;;;;5050152;28;20494;-76
2023/06/03 07:33:11;;;;;;;6.40;2.85;;;20.80;99.90;;;;;;5048083;28;20862;-75
2023/06/03 07:35:37;;;;;;;5.40;2.60;;;20.70;99.90;;;;;;5045113;28;20040;-76
2023/06/03 07:38:04;;;;;;;5.30;2.63;;;21.00;99.90;;;;;;5048486;28;20033;-75
2023/06/03 07:40:41;;;;;;;7.38;2.78;;;21.80;99.90;;;;;;5047583;28;20029;-75
2023/06/03 07:43:08;;;;;;;6.05;2.90;;;21.90;99.90;;;;;;5044682;28;20052;-75
2023/06/03 07:45:34;;;;;;;4.88;2.55;;;21.50;99.90;;;;;;5040458;28;20753;-75
2023/06/03 07:48:02;;;;;;;6.00;2.30;;;22.30;99.90;;;;;;5045276;28;20063;-75
2023/06/03 07:50:28;;;;;;;5.82;2.83;;;23.90;97.70;;;;;;5051252;28;20086;-75
2023/06/03 07:53:04;;;;;;;7.72;2.92;;;23.20;97.90;;;;;;5046743;28;20021;-76
2023/06/03 07:55:45;;;;;;;5.22;2.70;;;22.40;99.60;;;;;;5047054;28;20028;-74
2023/06/03 07:58:12;;;;;;;3.97;2.58;;;22.00;99.90;;;;;;5048343;28;20033;-74
2023/06/03 08:00:45;;;;;;;4.20;2.80;;;21.90;99.90;;;;;;5051921;28;20635;-73
2023/06/03 08:03:18;;;;;;;4.63;3.00;;;21.40;99.90;;;;;;5064624;28;20024;-73
2023/06/03 08:05:47;;;;;;;5.43;3.40;;;21.10;99.90;;;;;;5064859;28;20028;-75
2023/06/03 08:08:14;;;;;;;8.90;2.97;;;21.20;99.90;;;;;;5074501;28;20481;-77
2023/06/03 08:10:40;;;;;;;6.50;2.97;;;21.30;99.90;;;;;;5069009;28;20504;-77
2023/06/03 08:13:05;;;;;;;4.97;3.15;;;21.20;99.90;;;;;;5070483;28;20055;-75
2023/06/03 08:15:35;;;;;;;4.57;2.58;;;20.90;99.90;;;;;;5066652;28;20028;-74
2023/06/03 08:18:05;;;;;;;4.72;2.90;;;20.80;99.90;;;;;;5066302;28;20036;-74
2023/06/03 08:20:33;;;;;;;4.57;2.72;;;20.80;99.90;;;;;;5065485;28;20054;-77
2023/06/03 08:22:59;;;;;;;9.60;3.65;;;20.80;99.90;;;;;;5064170;28;20032;-75
2023/06/03 08:25:25;;;;;;;6.28;3.38;;;20.90;99.90;;;;;;5069642;28;20081;-75
2023/06/03 08:27:52;;;;;;;5.20;3.15;;;20.90;99.90;;;;;;5070620;28;20068;-75
2023/06/03 08:30:20;;;;;;;5.60;2.88;;;20.90;99.90;;;;;;5070488;28;20033;-75
2023/06/03 08:32:46;;;;;;;6.68;3.22;;;21.00;99.90;;;;;;5069832;28;20515;-75
2023/06/03 08:35:13;;;;;;;6.70;3.00;;;20.90;99.90;;;;;;5068353;28;20040;-75
2023/06/03 08:37:40;;;;;;;5.22;3.28;;;20.80;99.90;;;;;;5066682;28;20498;-75
2023/06/03 08:40:14;;;;;;;8.93;3.30;;;20.80;99.90;;;;;;5064769;28;20397;-75
2023/06/03 08:42:41;;;;;;;10.18;3.40;;;20.80;99.90;;;;;;5071016;28;20509;-76
2023/06/03 08:45:15;;;;;;;6.85;3.63;;;20.60;99.90;;;;;;5069514;28;20391;-75
2023/06/03 08:48:05;;;;;;;6.00;3.55;;;20.70;99.90;;;;;;5070440;28;20025;-75
2023/06/03 08:50:35;;;;;;;5.28;3.22;;;20.70;99.90;;;;;;5065935;28;20411;-75
2023/06/03 08:53:08;;;;;;;6.22;3.10;;;20.70;99.90;;;;;;5051245;28;20082;-75
2023/06/03 08:55:36;;;;;;;6.30;3.07;;;20.70;99.90;;;;;;5069826;28;20037;-75
2023/06/03 08:58:05;;;;;;;7.93;3.70;;;20.50;99.90;;;;;;5054813;28;20032;-75
2023/06/03 09:00:32;;;;;;;8.25;3.75;;;20.60;99.90;;;;;;5060766;28;20838;-75
2023/06/03 09:02:59;;;;;;;5.25;3.00;;;20.70;99.90;;;;;;5055831;28;20034;-75
2023/06/03 09:05:26;;;;;;;5.70;3.10;;;20.80;99.90;;;;;;5049979;28;20028;-75
2023/06/03 09:07:53;;;;;;;5.32;3.00;;;20.90;99.90;;;;;;5052862;28;20097;-75
2023/06/03 09:10:25;;;;;;;4.47;2.50;;;20.90;99.90;;;;;;5051262;28;20075;-75
2023/06/03 09:12:54;;;;;;;4.65;2.78;;;20.80;99.90;;;;;;5056944;28;20619;-75
2023/06/03 09:15:20;;;;;;;5.25;3.00;;;21.00;99.90;;;;;;5048259;28;20025;-75
2023/06/03 09:17:46;;;;;;;5.03;3.13;;;21.10;99.90;;;;;;5052153;28;20369;-76
2023/06/03 09:20:13;;;;;;;6.13;3.22;;;21.00;99.90;;;;;;5048643;28;20418;-75
2023/06/03 09:22:42;;;;;;;5.32;3.72;;;21.00;99.90;;;;;;5045284;28;20060;-76
2023/06/03 09:25:08;;;;;;;5.85;3.17;;;21.00;99.90;;;;;;5050425;28;23374;-75
2023/06/03 09:27:35;;;;;;;6.20;3.35;;;21.00;99.90;;;;;;5050189;28;20024;-75
2023/06/03 09:30:03;;;;;;;5.82;3.10;;;20.90;99.90;;;;;;5052490;28;20043;-75
2023/06/03 09:32:33;;;;;;;5.32;3.60;;;21.00;99.90;;;;;;5046377;28;25879;-75
2023/06/03 09:35:00;;;;;;;5.15;3.00;;;21.20;99.90;;;;;;5045572;28;20591;-76
2023/06/03 09:37:26;;;;;;;5.57;3.33;;;21.20;99.90;;;;;;5052050;28;20108;-75
2023/06/03 09:39:52;;;;;;;10.90;4.15;;;21.20;99.90;;;;;;5050018;28;20031;-75
2023/06/03 09:42:18;;;;;;;6.45;3.50;;;21.30;99.90;;;;;;5045474;28;20028;-75
2023/06/03 09:44:46;;;;;;;5.68;3.33;;;21.20;99.90;;;;;;5047512;28;20113;-75
2023/06/03 09:47:12;;;;;;;5.78;3.42;;;21.20;99.90;;;;;;5048433;28;20017;-75
2023/06/03 09:49:38;;;;;;;6.40;3.40;;;21.20;99.90;;;;;;5044559;28;20037;-75
2023/06/03 09:52:09;;;;;;;4.38;2.97;;;21.30;99.90;;;;;;5053664;28;20614;-75
2023/06/03 09:54:35;;;;;;;4.72;2.97;;;21.30;99.90;;;;;;5047282;28;20055;-75
2023/06/03 09:57:11;;;;;;;4.72;3.00;;;21.10;99.90;;;;;;5044544;28;20155;-75
2023/06/03 09:59:40;;;;;;;5.53;3.03;;;21.10;99.90;;;;;;5046826;28;20028;-75
2023/06/03 10:02:12;;;;;;;5.28;2.95;;;21.10;99.90;;;;;;5048185;28;20116;-75
2023/06/03 10:04:44;;;;;;;5.55;3.20;;;21.20;99.90;;;;;;5047211;28;20082;-76
2023/06/03 10:07:11;;;;;;;4.28;2.85;;;21.30;99.90;;;;;;5051018;28;20107;-76
2023/06/03 10:09:37;;;;;;;5.45;3.55;;;21.30;99.90;;;;;;5048627;28;20037;-76
2023/06/03 10:12:03;;;;;;;5.53;3.08;;;21.20;99.90;;;;;;5047799;28;20108;-76
2023/06/03 10:14:28;;;;;;;9.48;3.92;;;21.40;99.90;;;;;;5053880;28;20158;-76
2023/06/03 10:17:03;;;;;;;4.40;2.97;;;21.50;99.90;;;;;;5046997;28;20254;-76
2023/06/03 10:19:31;;;;;;;5.10;3.20;;;21.50;99.90;;;;;;5047420;28;20036;-76
2023/06/03 10:21:57;;;;;;;9.65;3.65;;;21.50;99.90;;;;;;5051678;28;20125;-76
2023/06/03 10:24:26;;;;;;;6.75;3.15;;;21.40;99.90;;;;;;5044319;28;20115;-76
2023/06/03 10:26:52;;;;;;;8.30;4.85;;;21.40;99.90;;;;;;5051098;28;20094;-76
2023/06/03 10:29:18;;;;;;;6.45;3.60;;;21.50;99.90;;;;;;5050039;28;20107;-76
2023/06/03 10:31:45;;;;;;;5.95;3.40;;;21.40;99.90;;;;;;5046236;28;20060;-77
2023/06/03 10:34:16;;;;;;;7.70;3.55;;;21.40;99.90;;;;;;5045925;28;20605;-76
2023/06/03 10:36:42;;;;;;;4.90;3.05;;;21.40;99.90;;;;;;5044452;28;20037;-75
2023/06/03 10:39:11;;;;;;;8.70;3.58;;;21.50;99.90;;;;;;5050694;28;20633;-76
2023/06/03 10:41:38;;;;;;;6.57;3.42;;;21.50;99.90;;;;;;5044644;28;20444;-75
2023/06/03 10:44:04;;;;;;;6.43;3.15;;;21.50;99.90;;;;;;5046960;28;20029;-75
2023/06/03 10:46:30;;;;;;;6.13;2.92;;;21.60;99.90;;;;;;5045303;28;20037;-75
2023/06/03 10:48:57;;;;;;;5.22;2.90;;;21.50;99.90;;;;;;5044032;28;20044;-75
2023/06/03 10:51:52;;;;;;;6.32;3.53;;;21.50;99.90;;;;;;5048939;28;20403;-75
2023/06/03 10:54:38;;;;;;;5.25;3.00;;;21.60;99.90;;;;;;5046242;28;20032;-75
2023/06/03 10:57:08;;;;;;;5.47;3.45;;;21.70;99.90;;;;;;5045010;28;20484;-75
2023/06/03 10:59:45;;;;;;;5.88;3.25;;;21.60;99.90;;;;;;5046694;28;20515;-75
2023/06/03 11:02:14;;;;;;;5.60;3.33;;;21.70;99.90;;;;;;5044133;28;20098;-75
2023/06/03 11:04:40;;;;;;;5.30;2.85;;;21.90;99.90;;;;;;5045306;28;20570;-75
2023/06/03 11:07:33;;;;;;;5.22;2.75;;;21.90;99.90;;;;;;5048312;28;20024;-76
2023/06/03 11:10:00;;;;;;;6.68;3.10;;;21.90;99.90;;;;;;5045659;28;20122;-75
2023/06/03 11:12:48;;;;;;;5.57;3.25;;;22.20;99.90;;;;;;5046909;28;20186;-76
2023/06/03 11:15:14;;;;;;;5.10;2.95;;;22.70;99.90;;;;;;5045029;28;20076;-76
2023/06/03 11:17:42;;;;;;;7.25;2.92;;;23.10;99.90;;;;;;5054827;28;20659;-75
2023/06/03 11:20:08;;;;;;;6.60;2.80;;;22.80;99.90;;;;;;5053443;28;20066;-76
2023/06/03 11:22:37;;;;;;;5.35;3.33;;;22.90;99.90;;;;;;5048789;28;20120;-76
2023/06/03 11:25:03;;;;;;;4.57;2.72;;;22.80;99.40;;;;;;5048775;28;20021;-76
2023/06/03 11:27:30;;;;;;;5.07;2.80;;;22.70;99.70;;;;;;5044923;28;20033;-76
2023/06/03 11:29:59;;;;;;;4.65;2.67;;;23.10;99.20;;;;;;5051772;28;20032;-75
2023/06/03 11:32:31;;;;;;;3.83;2.20;;;23.20;99.00;;;;;;5043111;28;20137;-75
2023/06/03 11:35:03;;;;;;;4.57;2.17;;;23.10;98.00;;;;;;5045270;28;20450;-75
2023/06/03 11:37:41;;;;;;;5.00;3.00;;;23.50;98.10;;;;;;5043435;28;20052;-76
2023/06/03 11:40:14;;;;;;;4.90;2.70;;;23.90;97.80;;;;;;5047503;28;20029;-76
2023/06/03 11:42:54;;;;;;;4.03;2.40;;;23.90;97.30;;;;;;5056512;28;20421;-75
2023/06/03 11:45:24;;;;;;;5.80;2.90;;;23.50;97.80;;;;;;5048638;28;20033;-75
2023/06/03 11:47:52;;;;;;;10.50;3.47;;;23.50;98.50;;;;;;5045887;28;20074;-75
2023/06/03 11:50:19;;;;;;;6.50;2.92;;;23.40;98.40;;;;;;5044652;28;20059;-76
2023/06/03 11:52:45;;;;;;;6.63;2.45;;;23.50;98.30;;;;;;5048022;28;20035;-76
2023/06/03 11:55:11;;;;;;;5.30;2.88;;;23.50;97.80;;;;;;5045674;28;20033;-76
2023/06/03 11:57:39;;;;;;;6.68;2.78;;;23.50;97.40;;;;;;5044741;28;20494;-75
2023/06/03 12:00:10;;;;;;;4.38;2.50;;;23.40;97.70;;;;;;5051827;28;20041;-75
2023/06/03 12:02:46;;;;;;;7.53;3.50;;;23.40;97.50;;;;;;5051637;28;20047;-75
2023/06/03 12:05:12;;;;;;;6.72;3.28;;;23.30;97.80;;;;;;5049731;28;20035;-76
2023/06/03 12:07:38;;;;;;;6.07;3.08;;;23.60;97.40;;;;;;5047552;28;20029;-75
2023/06/03 12:10:05;;;;;;;7.32;2.50;;;23.50;97.30;;;;;;5056388;28;20047;-75
2023/06/03 12:12:31;;;;;;;6.30;2.50;;;23.40;97.40;;;;;;5050810;28;20040;-76
2023/06/03 12:15:07;;;;;;;4.28;2.58;;;23.80;98.00;;;;;;5050105;28;20028;-76
2023/06/03 12:17:33;;;;;;;4.32;2.25;;;24.10;97.00;;;;;;5054760;28;20029;-75
2023/06/03 12:20:00;;;;;;;4.45;2.58;;;24.00;96.40;;;;;;5059555;28;20021;-75
2023/06/03 12:22:27;;;;;;;4.35;2.42;;;24.00;96.30;;;;;;5054393;28;20039;-75
2023/06/03 12:24:52;;;;;;;5.03;2.30;;;24.30;96.80;;;;;;5050463;28;20114;-75
2023/06/03 12:27:24;;;;;;;3.97;2.63;;;24.50;95.90;;;;;;5050991;28;20078;-75
2023/06/03 12:29:55;;;;;;;4.40;2.60;;;24.30;95.70;;;;;;5053902;28;20507;-75
2023/06/03 12:32:22;;;;;;;4.00;2.25;;;24.20;95.40;;;;;;5045321;28;20454;-75
2023/06/03 12:34:48;;;;;;;3.97;2.10;;;24.00;96.10;;;;;;5050582;28;20029;-75
2023/06/03 12:37:28;;;;;;;3.45;1.90;;;24.10;95.90;;;;;;5044844;28;20025;-75
2023/06/03 12:39:55;;;;;;;4.35;2.28;;;24.10;96.10;;;;;;5046193;28;20032;-75
2023/06/03 12:42:35;;;;;;;3.70;2.00;;;23.90;95.60;;;;;;5043404;28;20040;-75
2023/06/03 12:45:01;;;;;;;5.43;2.08;;;24.00;95.60;;;;;;5042854;28;20051;-75
2023/06/03 12:47:28;;;;;;;3.90;2.55;;;23.90;96.10;;;;;;5046788;28;20066;-75
2023/06/03 12:50:08;;;;;;;4.13;2.15;;;24.10;96.10;;;;;;5048948;28;20033;-75
2023/06/03 12:52:36;;;;;;;4.65;2.38;;;24.10;96.00;;;;;;5050287;28;20037;-75
2023/06/03 12:55:03;;;;;;;5.32;2.22;;;24.30;95.60;;;;;;5052533;28;20578;-75